EPSC/SZZ METAR and TAF weather

Enter ICAO airport designator
Station Type Date Time Source
EPSC METAR 2020/04/08 21:30 UTC NOAA

EPSC 082130Z 15006KT CAVOK 12/04 Q1021


Station Type Date Time Source
EPSC Decoded METAR 2020/04/08 21:30 UTC NOAA

Szczecin, Poland (EPSC) 53-24N 014-37E 3M
Apr 08, 2020 - 05:30 PM EDT / 2020.04.08 2130 UTC
Wind: from the SSE (150 degrees) at 7 MPH (6 KT):0
Visibility: greater than 7 mile(s):0
Temperature: 53 F (12 C)
Dew Point: 39 F (4 C)
Relative Humidity: 57%
Pressure (altimeter): 30.15 in. Hg (1021 hPa)
ob: EPSC 082130Z 15006KT CAVOK 12/04 Q1021
cycle: 21

Station Type Date Time Source
EPSC TAF 2020/04/08 18:33 UTC NOAA

TAF EPSC 081730Z 0818/0918 18010KT CAVOK
BECMG 0822/0824 24010KT
BECMG 0903/0905 30012KT
TEMPO 0910/0917 32017G27KT

Example: see airport list